Mount Isa Airport

Airport
ICAO code: 
YBMA
IATA Code: 
ISA
Summary
ICAO Region: 
APAC
Territory: 
Location: 
Mount Isa, Queensland
Serving: 
Mount Isa
Elevation: 
1121 ft
Coordinates: 
Aerial View: 
20° 40' 4.49" S, 139° 29' 30.106" E
Metar
Observation
YBMA 011800Z AUTO 00000KT 9999 // NCD 23/04 Q1009
Station
Mount Isa Amo
Date/Time
2021-12-01 18:00:00
Wind direction
Wind speed
00 kts
Lowest cloud amount
no clouds detected
Temperature
23°C
Dew point
4°C
Humidity
29%
QNH
1009 hPa
Weather condition
n/a

Runways

Designator Length Width Surface Rops
12/30 854 18 GVL No/No
16/34 2560 45 ASP Yes/Yes
Airport map: 
Aerial View: 

SKYbrary Partners:

Safety knowledge contributed by: